Terminal Aerodrome Forecast
Issued by NWS Lake Charles, LA

Home | Current Version | Previous Version | Text Only | Print | Product List | Glossary On
Versions: 1 2 3 4 5 6 7 8 9 10 11 12 13 14 15 16 17
788
FTUS44 KLCH 240520
TAFLFT
TAF
KLFT 240520Z 2406/2506 VRB03KT P6SM FEW050
     FM241600 32012G18KT P6SM BKN040
     FM250100 VRB03KT P6SM FEW050=

USA.gov is the U.S. government's official web portal to all federal, state and local government web resources and services.